sensor_id;sensor_type;location;lat;lon;timestamp;P1;durP1;ratioP1;P2;durP2;ratioP2
24383;SDS011;12504;52.870;8.798;2022-12-10T00:01:52;89.38;;;34.63;;
24383;SDS011;12504;52.870;8.798;2022-12-10T00:04:18;94.05;;;31.20;;
24383;SDS011;12504;52.870;8.798;2022-12-10T00:06:46;79.70;;;30.08;;
24383;SDS011;12504;52.870;8.798;2022-12-10T00:09:15;78.63;;;30.85;;
24383;SDS011;12504;52.870;8.798;2022-12-10T00:11:42;77.93;;;30.80;;
24383;SDS011;12504;52.870;8.798;2022-12-10T00:14:09;76.63;;;29.67;;
24383;SDS011;12504;52.870;8.798;2022-12-10T00:16:36;78.85;;;30.55;;
24383;SDS011;12504;52.870;8.798;2022-12-10T00:19:02;72.70;;;30.17;;
24383;SDS011;12504;52.870;8.798;2022-12-10T00:21:30;79.05;;;31.38;;
24383;SDS011;12504;52.870;8.798;2022-12-10T00:23:57;67.50;;;29.73;;
24383;SDS011;12504;52.870;8.798;2022-12-10T00:26:25;82.65;;;28.40;;
24383;SDS011;12504;52.870;8.798;2022-12-10T00:28:53;80.07;;;29.70;;
24383;SDS011;12504;52.870;8.798;2022-12-10T00:31:28;81.53;;;30.10;;
24383;SDS011;12504;52.870;8.798;2022-12-10T00:33:56;69.57;;;29.15;;
24383;SDS011;12504;52.870;8.798;2022-12-10T00:36:25;82.10;;;28.45;;
24383;SDS011;12504;52.870;8.798;2022-12-10T00:38:55;78.25;;;31.90;;
24383;SDS011;12504;52.870;8.798;2022-12-10T00:41:21;83.65;;;31.00;;
24383;SDS011;12504;52.870;8.798;2022-12-10T00:43:46;80.45;;;30.95;;
24383;SDS011;12504;52.870;8.798;2022-12-10T00:46:13;80.57;;;32.20;;
24383;SDS011;12504;52.870;8.798;2022-12-10T00:48:40;73.60;;;30.65;;
24383;SDS011;12504;52.870;8.798;2022-12-10T00:51:08;79.45;;;29.98;;
24383;SDS011;12504;52.870;8.798;2022-12-10T00:53:37;89.65;;;35.63;;
24383;SDS011;12504;52.870;8.798;2022-12-10T00:56:05;81.63;;;31.90;;
24383;SDS011;12504;52.870;8.798;2022-12-10T00:58:33;82.60;;;29.85;;
24383;SDS011;12504;52.870;8.798;2022-12-10T01:01:06;82.85;;;30.92;;
24383;SDS011;12504;52.870;8.798;2022-12-10T01:03:34;73.95;;;33.85;;
24383;SDS011;12504;52.870;8.798;2022-12-10T01:08:40;80.05;;;30.25;;
24383;SDS011;12504;52.870;8.798;2022-12-10T01:11:07;85.05;;;30.80;;
24383;SDS011;12504;52.870;8.798;2022-12-10T01:13:34;81.28;;;31.40;;
24383;SDS011;12504;52.870;8.798;2022-12-10T01:16:01;80.70;;;31.67;;
24383;SDS011;12504;52.870;8.798;2022-12-10T01:18:28;73.18;;;29.70;;
24383;SDS011;12504;52.870;8.798;2022-12-10T01:20:54;72.35;;;31.90;;
24383;SDS011;12504;52.870;8.798;2022-12-10T01:23:20;72.40;;;28.75;;
24383;SDS011;12504;52.870;8.798;2022-12-10T01:25:45;69.85;;;29.90;;
24383;SDS011;12504;52.870;8.798;2022-12-10T01:28:12;78.15;;;29.13;;
24383;SDS011;12504;52.870;8.798;2022-12-10T01:30:38;82.30;;;31.48;;
24383;SDS011;12504;52.870;8.798;2022-12-10T01:33:03;76.07;;;30.52;;
24383;SDS011;12504;52.870;8.798;2022-12-10T01:35:29;86.03;;;33.42;;
24383;SDS011;12504;52.870;8.798;2022-12-10T01:37:55;75.97;;;33.75;;
24383;SDS011;12504;52.870;8.798;2022-12-10T01:40:20;77.78;;;31.13;;
24383;SDS011;12504;52.870;8.798;2022-12-10T01:42:46;80.10;;;30.10;;
24383;SDS011;12504;52.870;8.798;2022-12-10T01:45:13;84.10;;;29.83;;
24383;SDS011;12504;52.870;8.798;2022-12-10T01:47:39;71.28;;;29.73;;
24383;SDS011;12504;52.870;8.798;2022-12-10T01:50:06;72.80;;;29.88;;
24383;SDS011;12504;52.870;8.798;2022-12-10T01:52:35;71.75;;;28.65;;
24383;SDS011;12504;52.870;8.798;2022-12-10T01:55:05;78.30;;;29.33;;
24383;SDS011;12504;52.870;8.798;2022-12-10T01:57:52;66.70;;;29.30;;
24383;SDS011;12504;52.870;8.798;2022-12-10T02:00:17;87.07;;;31.50;;
24383;SDS011;12504;52.870;8.798;2022-12-10T02:02:49;74.10;;;29.58;;
24383;SDS011;12504;52.870;8.798;2022-12-10T02:05:27;67.22;;;28.00;;
24383;SDS011;12504;52.870;8.798;2022-12-10T02:13:17;66.45;;;30.67;;
24383;SDS011;12504;52.870;8.798;2022-12-10T02:15:51;68.95;;;29.40;;
24383;SDS011;12504;52.870;8.798;2022-12-10T02:21:17;76.25;;;30.25;;
24383;SDS011;12504;52.870;8.798;2022-12-10T02:23:54;65.32;;;27.33;;
24383;SDS011;12504;52.870;8.798;2022-12-10T02:29:13;63.15;;;26.95;;
24383;SDS011;12504;52.870;8.798;2022-12-10T02:31:49;70.85;;;28.42;;
24383;SDS011;12504;52.870;8.798;2022-12-10T02:34:18;57.15;;;27.27;;
24383;SDS011;12504;52.870;8.798;2022-12-10T02:36:46;67.63;;;29.92;;
24383;SDS011;12504;52.870;8.798;2022-12-10T02:41:52;78.75;;;30.50;;
24383;SDS011;12504;52.870;8.798;2022-12-10T02:44:20;196.88;;;58.40;;
24383;SDS011;12504;52.870;8.798;2022-12-10T02:46:49;67.28;;;29.35;;
24383;SDS011;12504;52.870;8.798;2022-12-10T02:49:18;73.80;;;29.23;;
24383;SDS011;12504;52.870;8.798;2022-12-10T02:51:45;63.63;;;27.80;;
24383;SDS011;12504;52.870;8.798;2022-12-10T02:57:28;82.03;;;29.20;;
24383;SDS011;12504;52.870;8.798;2022-12-10T03:05:52;71.63;;;28.10;;
24383;SDS011;12504;52.870;8.798;2022-12-10T03:08:28;71.72;;;31.90;;
24383;SDS011;12504;52.870;8.798;2022-12-10T03:11:13;73.80;;;29.45;;
24383;SDS011;12504;52.870;8.798;2022-12-10T03:16:25;73.30;;;28.27;;
24383;SDS011;12504;52.870;8.798;2022-12-10T03:18:57;71.78;;;31.75;;
24383;SDS011;12504;52.870;8.798;2022-12-10T03:21:25;62.67;;;28.33;;
24383;SDS011;12504;52.870;8.798;2022-12-10T03:23:54;70.38;;;29.23;;
24383;SDS011;12504;52.870;8.798;2022-12-10T03:26:19;81.68;;;32.33;;
24383;SDS011;12504;52.870;8.798;2022-12-10T03:28:49;68.68;;;31.15;;
24383;SDS011;12504;52.870;8.798;2022-12-10T03:31:20;67.85;;;28.98;;
24383;SDS011;12504;52.870;8.798;2022-12-10T03:33:46;63.25;;;28.38;;
24383;SDS011;12504;52.870;8.798;2022-12-10T03:36:13;65.45;;;28.75;;
24383;SDS011;12504;52.870;8.798;2022-12-10T03:38:41;75.18;;;30.63;;
24383;SDS011;12504;52.870;8.798;2022-12-10T03:41:08;76.28;;;30.05;;
24383;SDS011;12504;52.870;8.798;2022-12-10T03:43:34;72.10;;;28.65;;
24383;SDS011;12504;52.870;8.798;2022-12-10T03:46:00;75.25;;;30.70;;
24383;SDS011;12504;52.870;8.798;2022-12-10T03:48:26;70.18;;;30.25;;
24383;SDS011;12504;52.870;8.798;2022-12-10T03:50:51;66.13;;;30.48;;
24383;SDS011;12504;52.870;8.798;2022-12-10T03:53:17;64.72;;;28.80;;
24383;SDS011;12504;52.870;8.798;2022-12-10T03:55:43;77.07;;;29.20;;
24383;SDS011;12504;52.870;8.798;2022-12-10T03:58:08;67.28;;;28.58;;
24383;SDS011;12504;52.870;8.798;2022-12-10T04:00:34;76.00;;;28.58;;
24383;SDS011;12504;52.870;8.798;2022-12-10T04:03:00;69.63;;;28.70;;
24383;SDS011;12504;52.870;8.798;2022-12-10T04:05:26;73.25;;;30.80;;
24383;SDS011;12504;52.870;8.798;2022-12-10T04:07:51;76.78;;;33.53;;
24383;SDS011;12504;52.870;8.798;2022-12-10T04:12:56;72.47;;;29.27;;
24383;SDS011;12504;52.870;8.798;2022-12-10T04:15:41;61.97;;;30.00;;
24383;SDS011;12504;52.870;8.798;2022-12-10T04:18:25;65.68;;;28.35;;
24383;SDS011;12504;52.870;8.798;2022-12-10T04:20:51;72.53;;;29.67;;
24383;SDS011;12504;52.870;8.798;2022-12-10T04:23:35;75.38;;;29.50;;
24383;SDS011;12504;52.870;8.798;2022-12-10T04:26:20;65.70;;;29.70;;
24383;SDS011;12504;52.870;8.798;2022-12-10T04:29:06;63.25;;;28.27;;
24383;SDS011;12504;52.870;8.798;2022-12-10T04:31:33;61.80;;;27.40;;
24383;SDS011;12504;52.870;8.798;2022-12-10T04:33:58;68.50;;;27.65;;
24383;SDS011;12504;52.870;8.798;2022-12-10T04:36:24;65.30;;;27.70;;
24383;SDS011;12504;52.870;8.798;2022-12-10T04:38:50;67.82;;;29.67;;
24383;SDS011;12504;52.870;8.798;2022-12-10T04:41:15;66.22;;;28.02;;
24383;SDS011;12504;52.870;8.798;2022-12-10T04:43:41;64.65;;;28.08;;
24383;SDS011;12504;52.870;8.798;2022-12-10T04:46:08;63.15;;;28.30;;
24383;SDS011;12504;52.870;8.798;2022-12-10T04:48:34;70.57;;;31.63;;
24383;SDS011;12504;52.870;8.798;2022-12-10T04:51:00;68.85;;;29.23;;
24383;SDS011;12504;52.870;8.798;2022-12-10T04:53:25;61.97;;;27.55;;
24383;SDS011;12504;52.870;8.798;2022-12-10T04:55:51;64.43;;;27.58;;
24383;SDS011;12504;52.870;8.798;2022-12-10T04:58:17;66.38;;;28.45;;
24383;SDS011;12504;52.870;8.798;2022-12-10T05:00:42;65.22;;;28.05;;
24383;SDS011;12504;52.870;8.798;2022-12-10T05:03:08;69.78;;;27.83;;
24383;SDS011;12504;52.870;8.798;2022-12-10T05:05:34;54.17;;;26.58;;
24383;SDS011;12504;52.870;8.798;2022-12-10T05:08:00;62.28;;;27.17;;
24383;SDS011;12504;52.870;8.798;2022-12-10T05:10:26;66.70;;;28.58;;
24383;SDS011;12504;52.870;8.798;2022-12-10T05:12:52;59.50;;;29.85;;
24383;SDS011;12504;52.870;8.798;2022-12-10T05:15:17;57.70;;;26.05;;
24383;SDS011;12504;52.870;8.798;2022-12-10T05:17:43;64.97;;;28.15;;
24383;SDS011;12504;52.870;8.798;2022-12-10T05:20:09;66.40;;;29.42;;
24383;SDS011;12504;52.870;8.798;2022-12-10T05:22:35;64.03;;;29.73;;
24383;SDS011;12504;52.870;8.798;2022-12-10T05:25:20;74.47;;;27.88;;
24383;SDS011;12504;52.870;8.798;2022-12-10T05:27:45;70.78;;;29.45;;
24383;SDS011;12504;52.870;8.798;2022-12-10T05:30:11;63.22;;;27.80;;
24383;SDS011;12504;52.870;8.798;2022-12-10T05:32:37;70.38;;;27.60;;
24383;SDS011;12504;52.870;8.798;2022-12-10T05:35:03;71.05;;;30.25;;
24383;SDS011;12504;52.870;8.798;2022-12-10T05:37:30;73.03;;;30.27;;
24383;SDS011;12504;52.870;8.798;2022-12-10T05:39:55;65.40;;;29.60;;
24383;SDS011;12504;52.870;8.798;2022-12-10T05:42:21;69.93;;;29.10;;
24383;SDS011;12504;52.870;8.798;2022-12-10T05:44:47;66.40;;;28.88;;
24383;SDS011;12504;52.870;8.798;2022-12-10T05:47:12;61.75;;;28.92;;
24383;SDS011;12504;52.870;8.798;2022-12-10T05:49:38;69.85;;;31.23;;
24383;SDS011;12504;52.870;8.798;2022-12-10T05:52:04;64.85;;;28.23;;
24383;SDS011;12504;52.870;8.798;2022-12-10T05:54:29;65.82;;;29.98;;
24383;SDS011;12504;52.870;8.798;2022-12-10T05:56:55;65.60;;;27.92;;
24383;SDS011;12504;52.870;8.798;2022-12-10T05:59:21;75.43;;;30.92;;
24383;SDS011;12504;52.870;8.798;2022-12-10T06:01:47;74.03;;;30.35;;
24383;SDS011;12504;52.870;8.798;2022-12-10T06:04:12;68.32;;;29.70;;
24383;SDS011;12504;52.870;8.798;2022-12-10T06:06:39;63.53;;;25.67;;
24383;SDS011;12504;52.870;8.798;2022-12-10T06:09:05;75.40;;;31.33;;
24383;SDS011;12504;52.870;8.798;2022-12-10T06:11:36;72.47;;;29.00;;
24383;SDS011;12504;52.870;8.798;2022-12-10T06:14:02;64.03;;;26.55;;
24383;SDS011;12504;52.870;8.798;2022-12-10T06:16:27;62.33;;;27.40;;
24383;SDS011;12504;52.870;8.798;2022-12-10T06:18:53;59.45;;;26.48;;
24383;SDS011;12504;52.870;8.798;2022-12-10T06:21:19;70.78;;;29.58;;
24383;SDS011;12504;52.870;8.798;2022-12-10T06:23:46;67.13;;;28.90;;
24383;SDS011;12504;52.870;8.798;2022-12-10T06:26:15;63.22;;;26.52;;
24383;SDS011;12504;52.870;8.798;2022-12-10T06:28:45;65.95;;;27.02;;
24383;SDS011;12504;52.870;8.798;2022-12-10T06:31:12;65.97;;;26.63;;
24383;SDS011;12504;52.870;8.798;2022-12-10T06:33:39;59.72;;;27.63;;
24383;SDS011;12504;52.870;8.798;2022-12-10T06:36:06;63.92;;;31.38;;
24383;SDS011;12504;52.870;8.798;2022-12-10T06:38:34;65.93;;;28.38;;
24383;SDS011;12504;52.870;8.798;2022-12-10T06:41:03;65.30;;;26.13;;
24383;SDS011;12504;52.870;8.798;2022-12-10T06:43:30;67.72;;;28.70;;
24383;SDS011;12504;52.870;8.798;2022-12-10T06:45:56;62.15;;;29.98;;
24383;SDS011;12504;52.870;8.798;2022-12-10T06:48:21;62.22;;;27.75;;
24383;SDS011;12504;52.870;8.798;2022-12-10T06:50:47;61.42;;;25.83;;
24383;SDS011;12504;52.870;8.798;2022-12-10T06:53:13;64.38;;;28.20;;
24383;SDS011;12504;52.870;8.798;2022-12-10T06:55:38;70.43;;;29.17;;
24383;SDS011;12504;52.870;8.798;2022-12-10T06:58:04;67.45;;;26.60;;
24383;SDS011;12504;52.870;8.798;2022-12-10T07:00:30;54.55;;;27.38;;
24383;SDS011;12504;52.870;8.798;2022-12-10T07:02:56;67.18;;;28.70;;
24383;SDS011;12504;52.870;8.798;2022-12-10T07:05:22;74.03;;;28.50;;
24383;SDS011;12504;52.870;8.798;2022-12-10T07:07:47;62.33;;;27.23;;
24383;SDS011;12504;52.870;8.798;2022-12-10T07:10:13;65.43;;;28.00;;
24383;SDS011;12504;52.870;8.798;2022-12-10T07:12:39;74.93;;;31.85;;
24383;SDS011;12504;52.870;8.798;2022-12-10T07:15:05;80.43;;;33.33;;
24383;SDS011;12504;52.870;8.798;2022-12-10T07:17:31;69.93;;;33.20;;
24383;SDS011;12504;52.870;8.798;2022-12-10T07:19:57;70.78;;;32.15;;
24383;SDS011;12504;52.870;8.798;2022-12-10T07:22:23;82.68;;;31.13;;
24383;SDS011;12504;52.870;8.798;2022-12-10T07:24:49;123.32;;;52.08;;
24383;SDS011;12504;52.870;8.798;2022-12-10T07:27:15;102.80;;;38.83;;
24383;SDS011;12504;52.870;8.798;2022-12-10T07:29:41;85.72;;;34.22;;
24383;SDS011;12504;52.870;8.798;2022-12-10T07:32:09;89.00;;;35.03;;
24383;SDS011;12504;52.870;8.798;2022-12-10T07:34:35;90.30;;;36.90;;
24383;SDS011;12504;52.870;8.798;2022-12-10T07:37:00;84.47;;;38.25;;
24383;SDS011;12504;52.870;8.798;2022-12-10T07:39:26;91.20;;;36.63;;
24383;SDS011;12504;52.870;8.798;2022-12-10T07:41:52;80.38;;;35.55;;
24383;SDS011;12504;52.870;8.798;2022-12-10T07:44:19;96.00;;;33.67;;
24383;SDS011;12504;52.870;8.798;2022-12-10T07:46:48;63.92;;;32.28;;
24383;SDS011;12504;52.870;8.798;2022-12-10T07:49:15;66.82;;;30.27;;
24383;SDS011;12504;52.870;8.798;2022-12-10T07:51:48;72.50;;;30.13;;
24383;SDS011;12504;52.870;8.798;2022-12-10T07:54:14;76.63;;;30.00;;
24383;SDS011;12504;52.870;8.798;2022-12-10T07:56:40;82.35;;;30.92;;
24383;SDS011;12504;52.870;8.798;2022-12-10T07:59:06;77.68;;;31.58;;
24383;SDS011;12504;52.870;8.798;2022-12-10T08:01:32;92.53;;;38.25;;
24383;SDS011;12504;52.870;8.798;2022-12-10T08:03:58;104.45;;;49.03;;
24383;SDS011;12504;52.870;8.798;2022-12-10T08:06:24;91.95;;;39.75;;
24383;SDS011;12504;52.870;8.798;2022-12-10T08:08:51;76.93;;;32.53;;
24383;SDS011;12504;52.870;8.798;2022-12-10T08:11:18;79.18;;;32.70;;
24383;SDS011;12504;52.870;8.798;2022-12-10T08:13:45;83.53;;;33.30;;
24383;SDS011;12504;52.870;8.798;2022-12-10T08:16:12;77.68;;;31.20;;
24383;SDS011;12504;52.870;8.798;2022-12-10T08:18:40;88.85;;;33.15;;
24383;SDS011;12504;52.870;8.798;2022-12-10T08:21:13;83.38;;;36.05;;
24383;SDS011;12504;52.870;8.798;2022-12-10T08:23:42;94.38;;;35.95;;
24383;SDS011;12504;52.870;8.798;2022-12-10T08:26:12;93.43;;;30.60;;
24383;SDS011;12504;52.870;8.798;2022-12-10T08:28:41;95.28;;;34.83;;
24383;SDS011;12504;52.870;8.798;2022-12-10T08:31:08;84.40;;;35.03;;
24383;SDS011;12504;52.870;8.798;2022-12-10T08:33:36;72.43;;;31.02;;
24383;SDS011;12504;52.870;8.798;2022-12-10T08:36:03;81.40;;;31.65;;
24383;SDS011;12504;52.870;8.798;2022-12-10T08:38:29;102.75;;;38.65;;
24383;SDS011;12504;52.870;8.798;2022-12-10T08:40:56;90.35;;;38.13;;
24383;SDS011;12504;52.870;8.798;2022-12-10T08:43:22;86.28;;;34.67;;
24383;SDS011;12504;52.870;8.798;2022-12-10T08:45:48;78.40;;;33.72;;
24383;SDS011;12504;52.870;8.798;2022-12-10T08:48:14;90.97;;;32.33;;
24383;SDS011;12504;52.870;8.798;2022-12-10T08:50:40;80.63;;;32.45;;
24383;SDS011;12504;52.870;8.798;2022-12-10T08:53:06;88.80;;;31.58;;
24383;SDS011;12504;52.870;8.798;2022-12-10T08:55:32;80.85;;;32.08;;
24383;SDS011;12504;52.870;8.798;2022-12-10T08:57:59;77.85;;;31.30;;
24383;SDS011;12504;52.870;8.798;2022-12-10T09:00:24;79.18;;;32.75;;
24383;SDS011;12504;52.870;8.798;2022-12-10T09:02:51;92.80;;;32.45;;
24383;SDS011;12504;52.870;8.798;2022-12-10T09:05:17;82.10;;;33.75;;
24383;SDS011;12504;52.870;8.798;2022-12-10T09:07:42;86.13;;;33.97;;
24383;SDS011;12504;52.870;8.798;2022-12-10T09:10:11;90.07;;;35.50;;
24383;SDS011;12504;52.870;8.798;2022-12-10T09:12:37;73.65;;;31.77;;
24383;SDS011;12504;52.870;8.798;2022-12-10T09:15:04;82.90;;;32.50;;
24383;SDS011;12504;52.870;8.798;2022-12-10T09:17:30;92.40;;;34.30;;
24383;SDS011;12504;52.870;8.798;2022-12-10T09:19:56;70.55;;;29.45;;
24383;SDS011;12504;52.870;8.798;2022-12-10T09:22:22;79.97;;;30.92;;
24383;SDS011;12504;52.870;8.798;2022-12-10T09:24:48;76.15;;;30.48;;
24383;SDS011;12504;52.870;8.798;2022-12-10T09:27:13;91.35;;;32.42;;
24383;SDS011;12504;52.870;8.798;2022-12-10T09:29:39;75.15;;;30.17;;
24383;SDS011;12504;52.870;8.798;2022-12-10T09:32:05;73.32;;;30.58;;
24383;SDS011;12504;52.870;8.798;2022-12-10T09:34:31;84.05;;;32.83;;
24383;SDS011;12504;52.870;8.798;2022-12-10T09:36:56;71.28;;;31.23;;
24383;SDS011;12504;52.870;8.798;2022-12-10T09:39:22;71.72;;;27.80;;
24383;SDS011;12504;52.870;8.798;2022-12-10T09:47:00;74.15;;;29.45;;
24383;SDS011;12504;52.870;8.798;2022-12-10T09:52:43;79.40;;;29.73;;
24383;SDS011;12504;52.870;8.798;2022-12-10T09:55:19;77.22;;;29.83;;
24383;SDS011;12504;52.870;8.798;2022-12-10T09:57:51;73.75;;;29.88;;
24383;SDS011;12504;52.870;8.798;2022-12-10T10:00:38;71.07;;;30.45;;
24383;SDS011;12504;52.870;8.798;2022-12-10T10:03:06;71.85;;;29.38;;
24383;SDS011;12504;52.870;8.798;2022-12-10T10:05:39;75.40;;;29.48;;
24383;SDS011;12504;52.870;8.798;2022-12-10T10:08:14;81.32;;;30.10;;
24383;SDS011;12504;52.870;8.798;2022-12-10T10:10:51;86.65;;;31.65;;
24383;SDS011;12504;52.870;8.798;2022-12-10T10:13:25;89.50;;;31.55;;
24383;SDS011;12504;52.870;8.798;2022-12-10T10:15:57;91.03;;;28.73;;
24383;SDS011;12504;52.870;8.798;2022-12-10T10:18:54;100.35;;;39.25;;
24383;SDS011;12504;52.870;8.798;2022-12-10T10:21:31;93.63;;;38.03;;
24383;SDS011;12504;52.870;8.798;2022-12-10T10:24:00;101.18;;;41.83;;
24383;SDS011;12504;52.870;8.798;2022-12-10T10:26:28;128.35;;;49.65;;
24383;SDS011;12504;52.870;8.798;2022-12-10T10:28:56;108.72;;;45.47;;
24383;SDS011;12504;52.870;8.798;2022-12-10T10:31:26;96.80;;;33.63;;
24383;SDS011;12504;52.870;8.798;2022-12-10T10:34:06;108.30;;;40.95;;
24383;SDS011;12504;52.870;8.798;2022-12-10T10:36:44;88.90;;;31.38;;
24383;SDS011;12504;52.870;8.798;2022-12-10T10:41:43;77.93;;;28.90;;
24383;SDS011;12504;52.870;8.798;2022-12-10T10:46:47;88.43;;;30.58;;
24383;SDS011;12504;52.870;8.798;2022-12-10T10:49:25;67.82;;;27.30;;
24383;SDS011;12504;52.870;8.798;2022-12-10T10:52:05;80.85;;;31.17;;
24383;SDS011;12504;52.870;8.798;2022-12-10T10:54:40;82.68;;;29.73;;
24383;SDS011;12504;52.870;8.798;2022-12-10T10:57:23;70.63;;;27.35;;
24383;SDS011;12504;52.870;8.798;2022-12-10T10:59:53;77.57;;;28.83;;
24383;SDS011;12504;52.870;8.798;2022-12-10T11:02:33;69.13;;;27.05;;
24383;SDS011;12504;52.870;8.798;2022-12-10T11:07:35;72.55;;;25.23;;
24383;SDS011;12504;52.870;8.798;2022-12-10T11:10:04;66.55;;;24.83;;
24383;SDS011;12504;52.870;8.798;2022-12-10T11:12:59;75.43;;;25.67;;
24383;SDS011;12504;52.870;8.798;2022-12-10T11:18:00;77.30;;;29.00;;
24383;SDS011;12504;52.870;8.798;2022-12-10T11:22:58;59.13;;;23.27;;
24383;SDS011;12504;52.870;8.798;2022-12-10T11:39:47;58.25;;;23.63;;
24383;SDS011;12504;52.870;8.798;2022-12-10T11:53:15;64.05;;;24.17;;
24383;SDS011;12504;52.870;8.798;2022-12-10T12:07:09;59.97;;;24.02;;
24383;SDS011;12504;52.870;8.798;2022-12-10T12:12:16;52.55;;;22.40;;
24383;SDS011;12504;52.870;8.798;2022-12-10T12:15:54;61.50;;;25.13;;
24383;SDS011;12504;52.870;8.798;2022-12-10T12:17:52;55.53;;;21.95;;
24383;SDS011;12504;52.870;8.798;2022-12-10T12:20:34;60.10;;;22.98;;
24383;SDS011;12504;52.870;8.798;2022-12-10T12:23:08;54.80;;;23.17;;
24383;SDS011;12504;52.870;8.798;2022-12-10T12:25:42;56.63;;;23.55;;
24383;SDS011;12504;52.870;8.798;2022-12-10T12:28:12;58.33;;;22.77;;
24383;SDS011;12504;52.870;8.798;2022-12-10T12:30:45;54.20;;;21.67;;
24383;SDS011;12504;52.870;8.798;2022-12-10T12:35:50;60.35;;;21.85;;
24383;SDS011;12504;52.870;8.798;2022-12-10T12:46:09;51.65;;;22.00;;
24383;SDS011;12504;52.870;8.798;2022-12-10T12:51:48;55.33;;;22.40;;
24383;SDS011;12504;52.870;8.798;2022-12-10T12:54:21;59.42;;;24.48;;
24383;SDS011;12504;52.870;8.798;2022-12-10T13:04:41;53.83;;;21.95;;
24383;SDS011;12504;52.870;8.798;2022-12-10T13:07:09;54.85;;;21.10;;
24383;SDS011;12504;52.870;8.798;2022-12-10T13:10:07;54.38;;;21.10;;
24383;SDS011;12504;52.870;8.798;2022-12-10T13:15:19;46.45;;;19.83;;
24383;SDS011;12504;52.870;8.798;2022-12-10T13:23:50;51.10;;;21.15;;
24383;SDS011;12504;52.870;8.798;2022-12-10T13:26:26;47.00;;;20.75;;
24383;SDS011;12504;52.870;8.798;2022-12-10T13:28:54;48.40;;;20.33;;
24383;SDS011;12504;52.870;8.798;2022-12-10T13:31:36;47.60;;;20.25;;
24383;SDS011;12504;52.870;8.798;2022-12-10T13:41:41;53.55;;;22.05;;
24383;SDS011;12504;52.870;8.798;2022-12-10T13:50:04;40.15;;;17.27;;
24383;SDS011;12504;52.870;8.798;2022-12-10T14:01:13;43.55;;;17.23;;
24383;SDS011;12504;52.870;8.798;2022-12-10T14:03:44;38.92;;;17.17;;
24383;SDS011;12504;52.870;8.798;2022-12-10T14:06:26;44.80;;;19.38;;
24383;SDS011;12504;52.870;8.798;2022-12-10T14:09:02;55.00;;;24.10;;
24383;SDS011;12504;52.870;8.798;2022-12-10T14:11:31;52.40;;;21.83;;
24383;SDS011;12504;52.870;8.798;2022-12-10T14:14:01;52.83;;;21.40;;
24383;SDS011;12504;52.870;8.798;2022-12-10T14:16:30;56.15;;;23.13;;
24383;SDS011;12504;52.870;8.798;2022-12-10T14:19:03;59.67;;;22.63;;
24383;SDS011;12504;52.870;8.798;2022-12-10T14:21:34;53.75;;;21.35;;
24383;SDS011;12504;52.870;8.798;2022-12-10T14:26:35;55.58;;;21.77;;
24383;SDS011;12504;52.870;8.798;2022-12-10T14:29:12;50.42;;;19.05;;
24383;SDS011;12504;52.870;8.798;2022-12-10T14:31:46;49.72;;;21.13;;
24383;SDS011;12504;52.870;8.798;2022-12-10T14:34:17;46.97;;;19.92;;
24383;SDS011;12504;52.870;8.798;2022-12-10T14:36:48;55.10;;;19.27;;
24383;SDS011;12504;52.870;8.798;2022-12-10T14:39:34;51.08;;;21.02;;
24383;SDS011;12504;52.870;8.798;2022-12-10T14:42:04;48.25;;;23.35;;
24383;SDS011;12504;52.870;8.798;2022-12-10T14:44:31;46.90;;;21.77;;
24383;SDS011;12504;52.870;8.798;2022-12-10T14:47:15;49.72;;;20.75;;
24383;SDS011;12504;52.870;8.798;2022-12-10T14:49:47;49.63;;;23.35;;
24383;SDS011;12504;52.870;8.798;2022-12-10T14:52:15;47.63;;;20.83;;
24383;SDS011;12504;52.870;8.798;2022-12-10T14:54:43;52.65;;;21.10;;
24383;SDS011;12504;52.870;8.798;2022-12-10T14:57:14;49.95;;;20.63;;
24383;SDS011;12504;52.870;8.798;2022-12-10T14:59:50;45.50;;;19.17;;
24383;SDS011;12504;52.870;8.798;2022-12-10T15:02:22;45.78;;;20.77;;
24383;SDS011;12504;52.870;8.798;2022-12-10T15:04:52;43.65;;;19.40;;
24383;SDS011;12504;52.870;8.798;2022-12-10T15:07:22;47.65;;;19.73;;
24383;SDS011;12504;52.870;8.798;2022-12-10T15:09:50;60.38;;;22.23;;
24383;SDS011;12504;52.870;8.798;2022-12-10T15:14:59;46.70;;;19.63;;
24383;SDS011;12504;52.870;8.798;2022-12-10T15:17:40;59.45;;;22.55;;
24383;SDS011;12504;52.870;8.798;2022-12-10T15:20:18;84.30;;;35.90;;
24383;SDS011;12504;52.870;8.798;2022-12-10T15:22:45;52.28;;;23.45;;
24383;SDS011;12504;52.870;8.798;2022-12-10T15:25:25;48.03;;;21.15;;
24383;SDS011;12504;52.870;8.798;2022-12-10T15:27:53;42.28;;;20.75;;
24383;SDS011;12504;52.870;8.798;2022-12-10T15:30:28;49.88;;;22.30;;
24383;SDS011;12504;52.870;8.798;2022-12-10T15:33:02;46.67;;;21.23;;
24383;SDS011;12504;52.870;8.798;2022-12-10T15:35:42;53.63;;;22.67;;
24383;SDS011;12504;52.870;8.798;2022-12-10T15:38:11;46.33;;;21.08;;
24383;SDS011;12504;52.870;8.798;2022-12-10T15:40:38;46.85;;;19.30;;
24383;SDS011;12504;52.870;8.798;2022-12-10T15:43:19;52.05;;;19.67;;
24383;SDS011;12504;52.870;8.798;2022-12-10T15:45:55;54.00;;;21.85;;
24383;SDS011;12504;52.870;8.798;2022-12-10T15:48:22;56.10;;;26.92;;
24383;SDS011;12504;52.870;8.798;2022-12-10T15:50:49;61.15;;;27.25;;
24383;SDS011;12504;52.870;8.798;2022-12-10T15:53:24;68.50;;;29.40;;
24383;SDS011;12504;52.870;8.798;2022-12-10T15:55:53;51.88;;;22.23;;
24383;SDS011;12504;52.870;8.798;2022-12-10T15:58:19;56.60;;;23.60;;
24383;SDS011;12504;52.870;8.798;2022-12-10T16:00:44;55.90;;;23.85;;
24383;SDS011;12504;52.870;8.798;2022-12-10T16:03:12;50.25;;;21.23;;
24383;SDS011;12504;52.870;8.798;2022-12-10T16:05:40;52.40;;;22.10;;
24383;SDS011;12504;52.870;8.798;2022-12-10T16:08:17;48.00;;;20.20;;
24383;SDS011;12504;52.870;8.798;2022-12-10T16:10:46;47.87;;;20.67;;
24383;SDS011;12504;52.870;8.798;2022-12-10T16:13:16;48.85;;;22.05;;
24383;SDS011;12504;52.870;8.798;2022-12-10T16:15:57;48.92;;;21.23;;
24383;SDS011;12504;52.870;8.798;2022-12-10T16:18:34;51.60;;;22.80;;
24383;SDS011;12504;52.870;8.798;2022-12-10T16:21:03;58.40;;;24.95;;
24383;SDS011;12504;52.870;8.798;2022-12-10T16:23:30;45.55;;;18.23;;
24383;SDS011;12504;52.870;8.798;2022-12-10T16:25:56;58.05;;;21.23;;
24383;SDS011;12504;52.870;8.798;2022-12-10T16:28:22;53.20;;;22.02;;
24383;SDS011;12504;52.870;8.798;2022-12-10T16:30:49;44.55;;;19.98;;
24383;SDS011;12504;52.870;8.798;2022-12-10T16:33:20;47.60;;;21.58;;
24383;SDS011;12504;52.870;8.798;2022-12-10T16:35:47;56.03;;;23.25;;
24383;SDS011;12504;52.870;8.798;2022-12-10T16:38:15;51.80;;;19.50;;
24383;SDS011;12504;52.870;8.798;2022-12-10T16:40:42;55.78;;;21.52;;
24383;SDS011;12504;52.870;8.798;2022-12-10T16:43:16;48.17;;;23.00;;
24383;SDS011;12504;52.870;8.798;2022-12-10T16:45:44;53.97;;;24.08;;
24383;SDS011;12504;52.870;8.798;2022-12-10T16:48:10;55.75;;;22.55;;
24383;SDS011;12504;52.870;8.798;2022-12-10T16:50:36;49.67;;;21.40;;
24383;SDS011;12504;52.870;8.798;2022-12-10T16:53:06;45.08;;;19.10;;
24383;SDS011;12504;52.870;8.798;2022-12-10T16:55:46;50.83;;;20.95;;
24383;SDS011;12504;52.870;8.798;2022-12-10T16:58:12;51.55;;;20.80;;
24383;SDS011;12504;52.870;8.798;2022-12-10T17:00:40;51.55;;;21.10;;
24383;SDS011;12504;52.870;8.798;2022-12-10T17:03:11;56.40;;;22.95;;